Terminal Aerodrome Forecast
Issued by NWS

Home | Current Version | Previous Version | Graphics & Text | Print | Product List | Glossary On
Versions: 1 2 3 4 5 6 7 8 9 10 11 12 13 14 15 16 17 18 19 20 21 22 23 24 25 26 27 28
365
FTUS43 KLOT 232110 AAA
TAFDPA
TAF AMD
KDPA 232110Z 2321/2418 26012G20KT P6SM OVC007
     FM232200 27012G18KT P6SM OVC012
     FM240000 28007KT P6SM SCT015 OVC150
     FM240400 34005KT 4SM BR SCT007 BKN100
     FM240900 05008KT 4SM BR BKN007 OVC080
     FM241200 08012KT P6SM SCT007 OVC015 PROB30 2412/2415 3SM
      -FZRASN BKN007
     FM241500 10012KT 6SM -RA BR SCT007 OVC012 PROB30 2415/2418 4SM
      -RA BR BKN007=

USA.gov is the U.S. government's official web portal to all federal, state and local government web resources and services.